x

Buoy E01 - Central Maine Shelf (44032) Wave Buoy

4:04am - Sat 27th Dec 2014 All times are EST. -5 hours from GMT.

  • Sig Wave height 2.3ft
  • Peak Period 5s
  • Wind
    13mph
  • Sea Temp 45°f
  • Air Temp 43°f
  • Sea Pressure 1017.6mb
  • Buoy E01 - Central Maine Shelf
  • Buoy E01 - Central Maine Shelf

More Historic Weather Station data

Upgrade to MSW Pro to gain access to the past 30 days of data for over 8000 Wavebouys and Weather Stations around the globe.

Join Pro

Comparision Forecast

View Surf forecast
   
Sat 12/27 4:04am 2.5ft 5s 13
mph
1017.6mb 45f 43f
3:04am 2.5ft 5s 9 11 mph 1017.6mb 46f 42f
2:04am 2.5ft 5s 9 11 mph 1017.6mb 46f 42f
1:04am 3.5ft 5s 9 11 mph 1017.2mb 46f 42f
12:04am 3ft 5s 11 13 mph 1017.5mb 46f 42f
Fri 12/26 11:04pm 3.5ft 5s 16 18 mph 1017.9mb 46f 43f
10:04pm 3.5ft 5s 18 20 mph 1017.8mb 46f 44f
9:04pm 2.5ft 5s 18 20 mph 1017.9mb 46f 45f
8:04pm 3.5ft 6s 11 13 mph 1017.8mb 45f 45f
7:04pm 3ft 5s 4 7 mph 1017.8mb 44f 45f
6:04pm 2.5ft 5s 7
mph
1017.1mb 44f 45f
5:04pm 2.5ft 5s 7
mph
1016.9mb 45f 46f
4:04pm 3.5ft 11s 9 11 mph 1016.8mb 45f 46f
3:04pm  -   -  13 16 mph 1016.3mb 46f 46f
2:04pm 4.5ft 11s 16 18 mph 1015.7mb 46f 46f
1:04pm 3.5ft 5s 18 20 mph 1015.5mb 46f 46f
12:04pm 5ft 5s 18 20 mph 1015.7mb 46f 44f
11:04am 5ft 8s 18 22 mph 1016.5mb 46f 44f
10:04am 4ft 5s 20 22 mph 1016.7mb 46f 44f
9:04am 4.5ft 5s 20 25 mph 1016.5mb 46f 44f
8:04am 5ft 6s 20 25 mph 1015.5mb 46f 44f
7:04am 5ft 5s 20 25 mph 1014.8mb 46f 44f
6:04am 5.5ft 11s 22 25 mph 1014.1mb 46f 44f
5:04am 6ft 11s 22 27 mph 1013mb 45f 44f
4:04am 4.5ft 6s 18 25 mph 1012mb 48f 44f
3:04am 5ft 5s 18 20 mph 1012.2mb 48f 45f
2:04am 6.5ft 6s 20 22 mph 1011.7mb 48f 45f
1:04am 6.5ft 6s 22 29 mph 1010.3mb 47f 45f
12:04am 7ft 6s 22 29 mph 1009.2mb 48f 46f
Thu 12/25 11:04pm 7ft 6s 25 29 mph 1008.6mb 48f 46f
10:04pm 7ft 6s 25 29 mph 1008mb 48f 47f
9:04pm 7ft 6s 25 31 mph 1006.8mb 48f 47f
8:04pm 7ft 6s 25 31 mph 1005.8mb 48f 48f
7:04pm 7ft 6s 25 31 mph 1004.5mb 48f 48f
6:04pm 6ft 8s 27 34 mph 1002.9mb 48f 49f
5:04pm 5.5ft 8s 22 29 mph 1002.2mb 48f 49f
4:04pm 6ft 5s 25 29 mph 1000.6mb 48f 49f
3:04pm 6.5ft 8s 22 27 mph 998.9mb 48f 50f
2:04pm 7ft 6s 22 29 mph 997.9mb 48f 49f
1:04pm 7ft 8s 27 31 mph 996.5mb 48f 49f
12:04pm 7.5ft 8s 27 31 mph 995.9mb 48f 50f
11:04am 8.5ft 8s 18 22 mph 995.7mb 48f 50f
10:04am 8.5ft 8s 22 29 mph 996.7mb 48f 51f
9:04am 8ft 8s 25 29 mph 996.1mb 48f 53f
8:04am 8.5ft 6s 22 29 mph 996mb 48f 53f
7:04am 7ft 8s 22 29 mph 996mb 48f 52f
6:04am 7.5ft 8s 16 20 mph 996.5mb 48f 51f
5:04am 7.5ft 6s 16 18 mph 997mb 48f 50f
4:04am 7ft 6s 16 20 mph 997.7mb 47f 51f
3:04am 7ft 6s 13 16 mph 998mb 47f 51f
2:04am 7ft 6s 16 20 mph 998.4mb 47f 53f
1:04am 7ft 5s 22 27 mph 998.8mb 47f 53f
12:04am 6ft 5s 22 27 mph 999.8mb 47f 53f
Wed 12/24 11:04pm 5.5ft 8s 18 22 mph 1001.4mb 47f 52f
10:04pm 4.5ft 8s 13 16 mph 1002.8mb 47f 51f
9:04pm 4.5ft 8s 2 4 mph 1004.8mb 47f 49f
8:04pm 4.5ft 8s 4 7 mph 1006.1mb 47f 49f
7:04pm 5ft 8s 9 11 mph 1007.6mb 47f 49f
6:04pm 4.5ft 8s 9 11 mph 1008.7mb 47f 48f
5:04pm 5.5ft 8s 13 16 mph 1009.9mb 47f 48f
4:04pm 4.5ft 6s 13 16 mph 1010.8mb 47f 47f
3:04pm 5ft 8s 11 13 mph 1012.2mb 47f 47f
2:04pm 5.5ft 8s 13 16 mph 1012.6mb 47f 47f
1:04pm 5ft 8s 16 18 mph 1013.5mb 47f 46f
12:04pm 5ft 6s 11 16 mph 1015.5mb 47f 46f
11:04am 6ft 8s 16 20 mph 1016.4mb 47f 46f
10:04am 6ft 8s 18 22 mph 1017.4mb 47f 45f
9:04am 6.5ft 8s 20 29 mph 1017.9mb 47f 45f
8:04am 7.5ft 8s 16 20 mph 1019.5mb 47f 45f
7:04am 7ft 8s 18 20 mph 1020mb 47f 44f
6:04am 7.5ft 8s 16 18 mph 1021.1mb 47f 44f
5:04am 7.5ft 8s 18 22 mph 1020.1mb 47f 44f
4:04am 8ft 8s 20 25 mph 1020.1mb 47f 45f
3:04am 8ft 8s 20 27 mph 1020.6mb 47f 44f
2:04am 8ft 8s 16 20 mph 1021.8mb 47f 44f
1:04am 7.5ft 8s 18 22 mph 1021.6mb 47f 44f
12:04am 6ft 8s 18 22 mph 1021.8mb 47f 44f
Tue 12/23 11:04pm 6.5ft 8s 18 22 mph 1022.4mb 47f 44f
10:04pm 7ft 8s 20 25 mph 1022.2mb 48f 45f
9:04pm 7.5ft 8s 20 22 mph 1023.3mb 48f 45f
8:04pm 7ft 8s 18 22 mph 1023.5mb 48f 45f
7:04pm 7.5ft 8s 20 25 mph 1023.3mb 48f 44f
6:04pm 7ft 8s 20 25 mph 1023.3mb 48f 45f
5:04pm 8.5ft 8s 20 25 mph 1023.5mb 48f 44f
4:04pm 7.5ft 8s 20 27 mph 1023.5mb 48f 44f
3:04pm 7.5ft 8s 22 27 mph 1023.5mb 48f 44f